CPX615 Details

Departure: Myrtle Beach International Airport (KMYR)
Arrival: Washington Dulles International Airport (KIAD)
Route: HICKE V136 SBV V39 GVE V453 CSN


Current Weather Information
KMYR 251056Z 36009KT 10SM FEW011 OVC055 20/18 A3003 RMK AO2 SLP170 T02000183
KIAD 251052Z 02004KT 10SM FEW030 BKN075 18/13 A3022 RMK AO2 SLP230 T01780133 $